Time;durP1;ratioP1;P1;durP2;ratioP2;P2;SDS_P1;SDS_P2;PMS_P1;PMS_P2;Temp;Humidity;BMP_temperature;BMP_pressure;BME280_temperature;BME280_humidity;BME280_pressure;Samples;Min_cycle;Max_cycle;Signal;HPM_P1;HPM_P2
2023/03/15 00:01:07;;;;;;;5.22;1.45;;;;;;;;;;6266764;22;20031;-83
2023/03/15 00:03:36;;;;;;;4.32;1.17;;;;;;;;;;6267388;22;20473;-83
2023/03/15 00:06:03;;;;;;;3.78;1.25;;;;;;;;;;6268056;22;20035;-83
2023/03/15 00:08:32;;;;;;;3.50;1.13;;;;;;;;;;6241159;22;20035;-83
2023/03/15 00:10:59;;;;;;;3.08;1.00;;;;;;;;;;6266488;22;20047;-82
2023/03/15 00:13:26;;;;;;;3.50;1.40;;;;;;;;;;6267173;22;20032;-83
2023/03/15 00:15:55;;;;;;;4.45;1.30;;;;;;;;;;6268770;22;20719;-83
2023/03/15 00:18:22;;;;;;;4.97;1.40;;;;;;;;;;6268163;22;20421;-83
2023/03/15 00:20:48;;;;;;;3.78;1.27;;;;;;;;;;6268051;22;20477;-83
2023/03/15 00:23:16;;;;;;;3.35;1.30;;;;;;;;;;6239965;22;20024;-82
2023/03/15 00:25:44;;;;;;;4.70;1.17;;;;;;;;;;6241847;22;20082;-82
2023/03/15 00:28:10;;;;;;;4.82;1.35;;;;;;;;;;6267923;22;20028;-82
2023/03/15 00:30:37;;;;;;;9.00;1.60;;;;;;;;;;6242659;22;20035;-82
2023/03/15 00:33:04;;;;;;;4.22;1.30;;;;;;;;;;6268223;22;20409;-84
2023/03/15 00:35:32;;;;;;;4.18;1.50;;;;;;;;;;6268909;22;20035;-82
2023/03/15 00:37:59;;;;;;;4.70;1.35;;;;;;;;;;6268241;22;20104;-82
2023/03/15 00:40:26;;;;;;;4.15;1.55;;;;;;;;;;6268002;22;20024;-82
2023/03/15 00:42:53;;;;;;;5.85;1.67;;;;;;;;;;6268003;22;20078;-82
2023/03/15 00:45:21;;;;;;;4.60;1.52;;;;;;;;;;6266621;22;20031;-82
2023/03/15 00:47:51;;;;;;;5.18;1.67;;;;;;;;;;6269204;22;20031;-82
2023/03/15 00:50:19;;;;;;;4.47;1.75;;;;;;;;;;6268263;22;20694;-82
2023/03/15 00:52:45;;;;;;;7.22;1.85;;;;;;;;;;6267574;22;20031;-82
2023/03/15 00:55:13;;;;;;;5.65;1.73;;;;;;;;;;6267022;22;20476;-82
2023/03/15 00:57:41;;;;;;;4.32;1.73;;;;;;;;;;6267779;22;20020;-82
2023/03/15 01:00:13;;;;;;;7.22;2.03;;;;;;;;;;6267504;22;20865;-82
2023/03/15 01:02:39;;;;;;;7.85;2.08;;;;;;;;;;6268255;22;20058;-82
2023/03/15 01:05:06;;;;;;;7.25;1.90;;;;;;;;;;6267501;22;20071;-82
2023/03/15 01:07:33;;;;;;;5.82;2.00;;;;;;;;;;6267880;22;20034;-82
2023/03/15 01:10:00;;;;;;;7.03;1.90;;;;;;;;;;6267421;22;20028;-82
2023/03/15 01:12:28;;;;;;;5.53;1.58;;;;;;;;;;6267174;22;20028;-82
2023/03/15 01:14:55;;;;;;;5.53;1.80;;;;;;;;;;6265098;22;20465;-83
2023/03/15 01:17:22;;;;;;;7.18;1.85;;;;;;;;;;6267406;22;20099;-84
2023/03/15 01:19:50;;;;;;;5.78;1.60;;;;;;;;;;6266836;22;20098;-83
2023/03/15 01:22:17;;;;;;;4.93;1.20;;;;;;;;;;6267935;22;20812;-83
2023/03/15 01:24:43;;;;;;;6.15;1.40;;;;;;;;;;6266236;22;20027;-83
2023/03/15 01:27:10;;;;;;;5.15;1.30;;;;;;;;;;6240089;22;20058;-83
2023/03/15 01:29:37;;;;;;;4.63;1.77;;;;;;;;;;6268366;22;20078;-83
2023/03/15 01:32:05;;;;;;;2.92;1.02;;;;;;;;;;6267614;22;20070;-83
2023/03/15 01:34:32;;;;;;;3.65;1.35;;;;;;;;;;6266965;22;20028;-82
2023/03/15 01:36:59;;;;;;;3.15;1.17;;;;;;;;;;6266712;22;20028;-83
2023/03/15 01:39:26;;;;;;;3.53;1.30;;;;;;;;;;6240432;22;20100;-83
2023/03/15 01:41:52;;;;;;;5.90;1.63;;;;;;;;;;6267156;22;20119;-83
2023/03/15 01:44:19;;;;;;;4.78;1.33;;;;;;;;;;6266077;22;20036;-83
2023/03/15 01:46:46;;;;;;;4.63;1.20;;;;;;;;;;6268039;22;20031;-83
2023/03/15 01:49:15;;;;;;;4.13;1.38;;;;;;;;;;6266675;22;20120;-83
2023/03/15 01:51:48;;;;;;;3.55;1.30;;;;;;;;;;6267934;22;20043;-84
2023/03/15 01:54:20;;;;;;;4.22;1.20;;;;;;;;;;6269784;22;20096;-84
2023/03/15 01:56:49;;;;;;;3.67;1.10;;;;;;;;;;6271523;22;20020;-84
2023/03/15 01:59:20;;;;;;;4.95;1.02;;;;;;;;;;6244343;22;20092;-84
2023/03/15 02:01:47;;;;;;;4.22;1.30;;;;;;;;;;6271503;22;20032;-84
2023/03/15 02:04:17;;;;;;;4.07;1.10;;;;;;;;;;6269509;22;20066;-85
2023/03/15 02:06:45;;;;;;;4.75;1.17;;;;;;;;;;6244536;22;20024;-84
2023/03/15 02:09:13;;;;;;;3.60;1.20;;;;;;;;;;6246564;22;20024;-84
2023/03/15 02:11:40;;;;;;;10.40;1.42;;;;;;;;;;6270826;22;20032;-84
2023/03/15 02:14:09;;;;;;;5.65;1.40;;;;;;;;;;6269571;22;20465;-84
2023/03/15 02:16:37;;;;;;;2.83;1.10;;;;;;;;;;6270992;22;20497;-84
2023/03/15 02:19:05;;;;;;;4.47;1.40;;;;;;;;;;6271425;22;20023;-85
2023/03/15 02:21:37;;;;;;;4.82;1.30;;;;;;;;;;6269958;22;20024;-84
2023/03/15 02:24:08;;;;;;;5.53;1.30;;;;;;;;;;6269236;22;20086;-84
2023/03/15 02:26:55;;;;;;;4.60;1.30;;;;;;;;;;6270330;22;20032;-84
2023/03/15 02:29:23;;;;;;;4.78;1.42;;;;;;;;;;6269196;22;20059;-84
2023/03/15 02:31:50;;;;;;;5.03;1.50;;;;;;;;;;6270036;22;20809;-84
2023/03/15 02:34:16;;;;;;;5.03;1.35;;;;;;;;;;6267449;22;20419;-83
2023/03/15 02:36:43;;;;;;;6.07;1.83;;;;;;;;;;6269660;22;20024;-83
2023/03/15 02:39:18;;;;;;;4.93;1.42;;;;;;;;;;6269395;22;20055;-84
2023/03/15 02:41:47;;;;;;;4.10;1.33;;;;;;;;;;6242716;22;20055;-84
2023/03/15 02:44:16;;;;;;;6.28;1.60;;;;;;;;;;6268066;22;20024;-84
2023/03/15 02:46:45;;;;;;;8.70;1.70;;;;;;;;;;6270099;22;20024;-84
2023/03/15 02:49:12;;;;;;;4.88;1.30;;;;;;;;;;6269278;22;20029;-84
2023/03/15 02:51:38;;;;;;;4.20;1.52;;;;;;;;;;6270002;22;20024;-84
2023/03/15 02:54:05;;;;;;;6.18;1.90;;;;;;;;;;6242309;22;20028;-84
2023/03/15 02:56:32;;;;;;;5.65;1.48;;;;;;;;;;6243189;22;20024;-84
2023/03/15 02:58:59;;;;;;;4.68;1.48;;;;;;;;;;6269983;22;20024;-83
2023/03/15 03:01:25;;;;;;;4.78;1.35;;;;;;;;;;6269513;22;20032;-83
2023/03/15 03:03:52;;;;;;;6.57;1.70;;;;;;;;;;6268828;22;20020;-83
2023/03/15 03:06:18;;;;;;;6.03;1.52;;;;;;;;;;6269586;22;20125;-84
2023/03/15 03:08:46;;;;;;;4.47;1.40;;;;;;;;;;6269777;22;20032;-83
2023/03/15 03:11:13;;;;;;;4.63;1.40;;;;;;;;;;6269811;22;20087;-83
2023/03/15 03:13:40;;;;;;;5.10;1.33;;;;;;;;;;6268978;22;20050;-83
2023/03/15 03:16:07;;;;;;;4.72;1.60;;;;;;;;;;6269578;22;20031;-84
2023/03/15 03:18:36;;;;;;;3.55;1.35;;;;;;;;;;6270413;22;20058;-84
2023/03/15 03:21:04;;;;;;;4.43;1.30;;;;;;;;;;6243283;22;20013;-83
2023/03/15 03:23:32;;;;;;;4.43;1.30;;;;;;;;;;6269391;22;20047;-83
2023/03/15 03:25:59;;;;;;;5.47;1.60;;;;;;;;;;6269119;22;20063;-83
2023/03/15 03:28:28;;;;;;;5.50;1.52;;;;;;;;;;6269483;22;20083;-82
2023/03/15 03:30:54;;;;;;;3.80;1.48;;;;;;;;;;6269203;22;20024;-83
2023/03/15 03:33:21;;;;;;;7.10;2.15;;;;;;;;;;6269135;22;20071;-83
2023/03/15 03:35:48;;;;;;;4.60;1.67;;;;;;;;;;6268728;22;20085;-83
2023/03/15 03:38:15;;;;;;;7.15;1.90;;;;;;;;;;6269252;22;20016;-83
2023/03/15 03:40:41;;;;;;;6.93;2.20;;;;;;;;;;6269873;22;20032;-84
2023/03/15 03:43:08;;;;;;;5.55;2.33;;;;;;;;;;6268783;22;20103;-83
2023/03/15 03:45:34;;;;;;;5.72;2.42;;;;;;;;;;6267934;22;20026;-83
2023/03/15 03:48:01;;;;;;;8.60;2.70;;;;;;;;;;6268825;22;20035;-83
2023/03/15 03:50:27;;;;;;;8.15;2.38;;;;;;;;;;6270884;22;20035;-83
2023/03/15 03:52:53;;;;;;;6.60;2.53;;;;;;;;;;6267882;22;20028;-83
2023/03/15 03:55:23;;;;;;;6.68;2.47;;;;;;;;;;6270511;22;20132;-83
2023/03/15 03:57:51;;;;;;;6.63;2.70;;;;;;;;;;6270850;22;20741;-83
2023/03/15 04:00:18;;;;;;;10.70;3.40;;;;;;;;;;6242372;22;20055;-83
2023/03/15 04:02:45;;;;;;;5.85;2.58;;;;;;;;;;6268994;22;20040;-83
2023/03/15 04:05:11;;;;;;;8.85;3.33;;;;;;;;;;6270077;22;20464;-83
2023/03/15 04:07:38;;;;;;;7.45;3.17;;;;;;;;;;6269685;22;20032;-82
2023/03/15 04:10:05;;;;;;;8.98;3.30;;;;;;;;;;6243022;22;20103;-82
2023/03/15 04:12:32;;;;;;;7.28;3.13;;;;;;;;;;6269288;22;20024;-82
2023/03/15 04:14:58;;;;;;;8.25;3.60;;;;;;;;;;6267888;22;20024;-83
2023/03/15 04:17:24;;;;;;;11.70;3.45;;;;;;;;;;6269594;22;20025;-83
2023/03/15 04:19:51;;;;;;;9.75;3.45;;;;;;;;;;6270232;22;20035;-83
2023/03/15 04:22:18;;;;;;;10.05;3.53;;;;;;;;;;6241976;22;20100;-83
2023/03/15 04:24:44;;;;;;;9.68;4.00;;;;;;;;;;6268892;22;20048;-82
2023/03/15 04:27:14;;;;;;;9.07;3.65;;;;;;;;;;6270077;22;20032;-83
2023/03/15 04:29:43;;;;;;;14.45;3.40;;;;;;;;;;6243411;22;20070;-82
2023/03/15 04:32:10;;;;;;;8.40;3.38;;;;;;;;;;6268931;22;20605;-82
2023/03/15 04:34:37;;;;;;;9.95;3.42;;;;;;;;;;6268671;22;20961;-82
2023/03/15 04:37:05;;;;;;;10.40;3.70;;;;;;;;;;6241255;22;20083;-83
2023/03/15 04:39:31;;;;;;;11.68;3.85;;;;;;;;;;6270650;22;20074;-83
2023/03/15 04:41:57;;;;;;;8.23;2.88;;;;;;;;;;6242775;22;20023;-81
2023/03/15 04:44:26;;;;;;;9.35;3.63;;;;;;;;;;6268668;22;20079;-82
2023/03/15 04:46:53;;;;;;;6.57;2.63;;;;;;;;;;6269471;22;20024;-82
2023/03/15 04:49:19;;;;;;;8.43;2.53;;;;;;;;;;6269423;22;20024;-82
2023/03/15 04:51:46;;;;;;;9.50;3.30;;;;;;;;;;6269948;22;20056;-82
2023/03/15 04:54:12;;;;;;;8.05;3.13;;;;;;;;;;6268080;22;20005;-82
2023/03/15 04:56:40;;;;;;;7.57;3.25;;;;;;;;;;6267920;22;20522;-82
2023/03/15 04:59:07;;;;;;;8.95;3.55;;;;;;;;;;6269373;22;20125;-82
2023/03/15 05:01:33;;;;;;;9.15;3.22;;;;;;;;;;6270093;22;20126;-82
2023/03/15 05:04:00;;;;;;;11.30;3.35;;;;;;;;;;6268422;22;20020;-82
2023/03/15 05:06:27;;;;;;;10.15;3.35;;;;;;;;;;6267809;22;20953;-82
2023/03/15 05:08:53;;;;;;;8.45;3.78;;;;;;;;;;6269532;22;20016;-82
2023/03/15 05:11:20;;;;;;;9.50;3.33;;;;;;;;;;6269521;22;20164;-82
2023/03/15 05:13:46;;;;;;;9.80;3.45;;;;;;;;;;6270035;22;20047;-83
2023/03/15 05:16:13;;;;;;;10.35;3.50;;;;;;;;;;6274265;22;20094;-82
2023/03/15 05:18:39;;;;;;;11.80;3.30;;;;;;;;;;6269635;22;20027;-82
2023/03/15 05:21:06;;;;;;;12.02;3.67;;;;;;;;;;6242322;22;20035;-82
2023/03/15 05:23:32;;;;;;;14.82;3.83;;;;;;;;;;6268263;22;20886;-82
2023/03/15 05:25:59;;;;;;;7.60;3.50;;;;;;;;;;6267129;22;20096;-82
2023/03/15 05:28:25;;;;;;;9.15;3.70;;;;;;;;;;6266839;22;20129;-82
2023/03/15 05:30:52;;;;;;;10.73;3.50;;;;;;;;;;6267657;22;20016;-82
2023/03/15 05:33:19;;;;;;;9.23;3.03;;;;;;;;;;6267198;22;20031;-82
2023/03/15 05:35:47;;;;;;;16.08;3.95;;;;;;;;;;6267769;22;20023;-83
2023/03/15 05:38:14;;;;;;;9.63;3.15;;;;;;;;;;6268480;22;20106;-82
2023/03/15 05:40:41;;;;;;;10.73;3.35;;;;;;;;;;6242121;22;20028;-82
2023/03/15 05:43:08;;;;;;;8.85;3.55;;;;;;;;;;6268712;22;20024;-82
2023/03/15 05:45:35;;;;;;;11.45;3.85;;;;;;;;;;6268637;22;20028;-82
2023/03/15 05:48:01;;;;;;;8.45;3.65;;;;;;;;;;6267554;22;20020;-81
2023/03/15 05:50:27;;;;;;;11.50;3.50;;;;;;;;;;6268264;22;20636;-82
2023/03/15 05:52:54;;;;;;;10.40;3.65;;;;;;;;;;6267297;22;20031;-82
2023/03/15 05:55:20;;;;;;;8.63;3.38;;;;;;;;;;6266945;22;20027;-82
2023/03/15 05:57:47;;;;;;;13.98;3.35;;;;;;;;;;6267409;22;20035;-82
2023/03/15 06:00:14;;;;;;;10.23;2.88;;;;;;;;;;6268625;22;20032;-82
2023/03/15 06:02:44;;;;;;;8.68;2.58;;;;;;;;;;6267710;22;20098;-82
2023/03/15 06:05:10;;;;;;;9.93;2.75;;;;;;;;;;6240727;22;20058;-82
2023/03/15 06:07:37;;;;;;;9.38;2.72;;;;;;;;;;6269145;22;20862;-85
2023/03/15 06:10:04;;;;;;;7.47;2.55;;;;;;;;;;6241766;22;20020;-85
2023/03/15 06:12:30;;;;;;;9.05;2.72;;;;;;;;;;6268104;22;20380;-84
2023/03/15 06:14:56;;;;;;;9.63;2.40;;;;;;;;;;6241820;22;20558;-85
2023/03/15 06:17:23;;;;;;;7.85;2.20;;;;;;;;;;6267962;22;20051;-85
2023/03/15 06:19:49;;;;;;;7.70;2.13;;;;;;;;;;6267309;22;20911;-85
2023/03/15 06:22:19;;;;;;;8.18;2.50;;;;;;;;;;6268246;22;20024;-84
2023/03/15 06:24:48;;;;;;;9.02;2.03;;;;;;;;;;6266723;22;20028;-85
2023/03/15 06:27:15;;;;;;;6.30;2.22;;;;;;;;;;6240250;22;20084;-82
2023/03/15 06:29:41;;;;;;;9.95;2.35;;;;;;;;;;6267613;22;20412;-82
2023/03/15 06:32:08;;;;;;;7.50;2.25;;;;;;;;;;6267119;22;20083;-82
2023/03/15 06:34:34;;;;;;;9.93;2.42;;;;;;;;;;6266423;22;20134;-84
2023/03/15 06:37:00;;;;;;;5.88;2.28;;;;;;;;;;6268806;22;20114;-82
2023/03/15 06:39:27;;;;;;;6.13;2.20;;;;;;;;;;6239792;22;20103;-83
2023/03/15 06:41:57;;;;;;;10.82;2.70;;;;;;;;;;6265734;22;20016;-83
2023/03/15 06:44:23;;;;;;;7.55;2.40;;;;;;;;;;6243512;22;20026;-82
2023/03/15 06:46:50;;;;;;;6.38;2.45;;;;;;;;;;6267250;22;20039;-83
2023/03/15 06:49:16;;;;;;;6.63;2.38;;;;;;;;;;6267188;22;20024;-83
2023/03/15 06:51:44;;;;;;;6.05;2.33;;;;;;;;;;6267864;22;20036;-83
2023/03/15 06:54:10;;;;;;;11.65;2.88;;;;;;;;;;6265065;22;20070;-82
2023/03/15 06:56:37;;;;;;;7.85;2.53;;;;;;;;;;6268655;22;20031;-82
2023/03/15 06:59:04;;;;;;;9.43;3.00;;;;;;;;;;6266529;22;20064;-83
2023/03/15 07:01:30;;;;;;;8.05;2.88;;;;;;;;;;6267187;22;20031;-83
2023/03/15 07:03:57;;;;;;;10.50;3.20;;;;;;;;;;6264280;22;20024;-83
2023/03/15 07:06:23;;;;;;;11.63;2.90;;;;;;;;;;6267840;22;20028;-83
2023/03/15 07:08:50;;;;;;;8.02;2.60;;;;;;;;;;6266895;22;20024;-83
2023/03/15 07:11:16;;;;;;;8.77;3.05;;;;;;;;;;6267802;22;20028;-83
2023/03/15 07:13:42;;;;;;;10.18;3.30;;;;;;;;;;6265925;22;20083;-83
2023/03/15 07:16:08;;;;;;;10.07;2.88;;;;;;;;;;6266761;22;20066;-83
2023/03/15 07:18:35;;;;;;;7.95;2.58;;;;;;;;;;6268365;22;20682;-83
2023/03/15 07:21:02;;;;;;;13.75;2.92;;;;;;;;;;6267938;22;20036;-83
2023/03/15 07:23:29;;;;;;;8.38;2.63;;;;;;;;;;6265575;22;20101;-83
2023/03/15 07:25:56;;;;;;;7.68;2.78;;;;;;;;;;6269000;22;20359;-84
2023/03/15 07:28:23;;;;;;;12.68;2.97;;;;;;;;;;6266953;22;20100;-83
2023/03/15 07:30:53;;;;;;;9.45;2.97;;;;;;;;;;6268984;22;20035;-83
2023/03/15 07:33:21;;;;;;;9.45;2.45;;;;;;;;;;6267102;22;20527;-83
2023/03/15 07:35:48;;;;;;;5.20;2.00;;;;;;;;;;6266186;22;20098;-83
2023/03/15 07:38:14;;;;;;;10.23;2.58;;;;;;;;;;6268262;22;20024;-82
2023/03/15 07:40:41;;;;;;;5.38;2.30;;;;;;;;;;6266877;22;20104;-83
2023/03/15 07:43:07;;;;;;;10.60;2.38;;;;;;;;;;6265395;22;20024;-83
2023/03/15 07:45:34;;;;;;;9.18;2.78;;;;;;;;;;6267440;22;20124;-82
2023/03/15 07:48:00;;;;;;;5.55;1.98;;;;;;;;;;6267642;22;20020;-83
2023/03/15 07:50:27;;;;;;;11.35;2.45;;;;;;;;;;6268493;22;20020;-83
2023/03/15 07:52:54;;;;;;;8.40;2.20;;;;;;;;;;6266908;22;20028;-82
2023/03/15 07:55:20;;;;;;;6.88;2.38;;;;;;;;;;6268251;22;20024;-84
2023/03/15 07:57:46;;;;;;;8.13;2.30;;;;;;;;;;6268215;22;20107;-83
2023/03/15 08:00:17;;;;;;;7.88;2.33;;;;;;;;;;6268087;22;20035;-83
2023/03/15 08:02:43;;;;;;;6.15;2.30;;;;;;;;;;6239705;22;20031;-84
2023/03/15 08:05:09;;;;;;;13.23;2.20;;;;;;;;;;6239173;22;20028;-85
2023/03/15 08:07:36;;;;;;;7.45;2.10;;;;;;;;;;6240784;22;20187;-85
2023/03/15 08:10:04;;;;;;;11.65;2.50;;;;;;;;;;6268119;22;20179;-84
2023/03/15 08:12:31;;;;;;;6.85;2.63;;;;;;;;;;6268359;22;20767;-85
2023/03/15 08:15:01;;;;;;;9.75;2.38;;;;;;;;;;6239794;22;20024;-85
2023/03/15 08:17:28;;;;;;;10.57;2.60;;;;;;;;;;6267774;22;20516;-86
2023/03/15 08:19:54;;;;;;;6.00;1.75;;;;;;;;;;6240408;22;20020;-86
2023/03/15 08:22:20;;;;;;;8.85;1.52;;;;;;;;;;6267057;22;20436;-86
2023/03/15 08:24:47;;;;;;;6.43;1.60;;;;;;;;;;6265680;22;20086;-85
2023/03/15 08:27:13;;;;;;;6.72;1.55;;;;;;;;;;6267958;22;20028;-85
2023/03/15 08:29:40;;;;;;;4.97;1.40;;;;;;;;;;6268239;22;20098;-85
2023/03/15 08:32:06;;;;;;;6.95;1.60;;;;;;;;;;6267762;22;20028;-85
2023/03/15 08:34:33;;;;;;;4.40;1.40;;;;;;;;;;6242713;22;20036;-84
2023/03/15 08:37:00;;;;;;;5.07;1.20;;;;;;;;;;6240978;22;20028;-84
2023/03/15 08:39:26;;;;;;;4.53;1.02;;;;;;;;;;6269321;22;20106;-84
2023/03/15 08:41:52;;;;;;;8.82;1.55;;;;;;;;;;6269395;22;20024;-84
2023/03/15 08:44:19;;;;;;;7.20;1.48;;;;;;;;;;6266628;22;20110;-84
2023/03/15 08:46:46;;;;;;;9.18;4.30;;;;;;;;;;6267535;22;20028;-83
2023/03/15 08:49:12;;;;;;;10.15;2.72;;;;;;;;;;6266871;22;20075;-84
2023/03/15 08:51:39;;;;;;;9.35;1.58;;;;;;;;;;6267515;22;20524;-84
2023/03/15 08:54:06;;;;;;;5.57;1.27;;;;;;;;;;6237654;22;20495;-83
2023/03/15 08:56:32;;;;;;;6.75;1.67;;;;;;;;;;6265884;22;21080;-84
2023/03/15 08:58:59;;;;;;;7.28;1.52;;;;;;;;;;6266901;22;20056;-83
2023/03/15 09:01:25;;;;;;;5.78;1.60;;;;;;;;;;6268948;22;20025;-83
2023/03/15 09:03:51;;;;;;;4.22;1.15;;;;;;;;;;6265962;22;20031;-83
2023/03/15 09:06:18;;;;;;;4.80;1.15;;;;;;;;;;6266397;22;20059;-84
2023/03/15 09:08:44;;;;;;;3.70;1.00;;;;;;;;;;6267226;22;20025;-84
2023/03/15 09:11:10;;;;;;;11.20;1.10;;;;;;;;;;6269920;22;20110;-83
2023/03/15 09:13:37;;;;;;;7.50;1.23;;;;;;;;;;6270490;22;20052;-84
2023/03/15 09:16:04;;;;;;;4.65;1.10;;;;;;;;;;6244726;22;20020;-85
2023/03/15 09:18:30;;;;;;;8.13;1.40;;;;;;;;;;6248016;22;20063;-85
2023/03/15 09:21:00;;;;;;;5.05;0.80;;;;;;;;;;6273522;22;20051;-84
2023/03/15 09:23:31;;;;;;;7.40;1.30;;;;;;;;;;6274000;22;20027;-85
2023/03/15 09:28:58;;;;;;;4.75;0.90;;;;;;;;;;6273294;22;20020;-85
2023/03/15 09:31:38;;;;;;;7.55;1.40;;;;;;;;;;6270928;22;20976;-84
2023/03/15 09:34:05;;;;;;;4.13;1.02;;;;;;;;;;6273324;22;20042;-85
2023/03/15 09:36:41;;;;;;;4.78;1.20;;;;;;;;;;6270291;22;20111;-84
2023/03/15 09:39:08;;;;;;;5.05;1.10;;;;;;;;;;6245671;22;20086;-85
2023/03/15 09:41:40;;;;;;;6.70;1.30;;;;;;;;;;6275348;22;20955;-85
2023/03/15 09:44:06;;;;;;;8.10;1.20;;;;;;;;;;6268595;22;20028;-84
2023/03/15 09:46:37;;;;;;;9.77;1.20;;;;;;;;;;6241275;22;20052;-85
2023/03/15 09:49:17;;;;;;;5.53;0.93;;;;;;;;;;6267396;22;20082;-84
2023/03/15 09:52:05;;;;;;;7.95;1.00;;;;;;;;;;6267767;22;20051;-84
2023/03/15 09:54:39;;;;;;;5.20;0.90;;;;;;;;;;6240062;22;20030;-85
2023/03/15 09:57:13;;;;;;;5.20;1.08;;;;;;;;;;6240529;22;20089;-85
2023/03/15 09:59:41;;;;;;;7.30;1.45;;;;;;;;;;6266810;22;20060;-85
2023/03/15 10:02:16;;;;;;;8.90;1.23;;;;;;;;;;6266983;22;20024;-85
2023/03/15 10:04:43;;;;;;;5.45;0.77;;;;;;;;;;6266040;22;20031;-85
2023/03/15 10:07:14;;;;;;;6.93;1.13;;;;;;;;;;6240786;22;20020;-85
2023/03/15 10:09:41;;;;;;;6.75;0.80;;;;;;;;;;6267213;22;20026;-84
2023/03/15 10:12:12;;;;;;;5.65;0.95;;;;;;;;;;6240441;22;20031;-84
2023/03/15 10:14:38;;;;;;;;;;;;;;;;;;6238541;22;20031;-85
2023/03/15 10:17:10;;;;;;;5.88;0.80;;;;;;;;;;6265790;22;46686;-85
2023/03/15 10:19:43;;;;;;;5.18;1.00;;;;;;;;;;6265895;22;20492;-85
2023/03/15 10:22:12;;;;;;;4.97;0.82;;;;;;;;;;6266153;22;20462;-85
2023/03/15 10:24:48;;;;;;;6.47;0.95;;;;;;;;;;6261642;22;20907;-84
2023/03/15 10:27:19;;;;;;;8.43;1.33;;;;;;;;;;6265064;22;20028;-85
2023/03/15 10:29:47;;;;;;;7.25;1.00;;;;;;;;;;6266496;22;20357;-85
2023/03/15 10:32:16;;;;;;;8.77;1.02;;;;;;;;;;6267411;22;20095;-84
2023/03/15 10:34:48;;;;;;;5.35;0.88;;;;;;;;;;6239115;22;20167;-85
2023/03/15 10:37:14;;;;;;;4.88;0.90;;;;;;;;;;6266447;22;20052;-84
2023/03/15 10:39:45;;;;;;;3.72;0.90;;;;;;;;;;6265330;22;20059;-85
2023/03/15 10:42:31;;;;;;;6.70;0.95;;;;;;;;;;6266262;22;20461;-85
2023/03/15 10:44:59;;;;;;;5.72;1.13;;;;;;;;;;6264297;22;20456;-84
2023/03/15 10:47:26;;;;;;;5.38;0.90;;;;;;;;;;6265789;22;20063;-85
2023/03/15 10:49:57;;;;;;;7.35;0.80;;;;;;;;;;6264893;22;20676;-85
2023/03/15 10:52:23;;;;;;;;;;;;;;;;;;6269296;22;20059;-85
2023/03/15 10:54:50;;;;;;;5.13;0.80;;;;;;;;;;6266024;22;44777;-85
2023/03/15 10:57:26;;;;;;;5.82;1.08;;;;;;;;;;6268886;22;20054;-85
2023/03/15 11:00:05;;;;;;;4.45;0.95;;;;;;;;;;6271689;22;21222;-85
2023/03/15 11:02:32;;;;;;;5.95;1.00;;;;;;;;;;6271828;22;20138;-85
2023/03/15 11:05:07;;;;;;;4.63;0.98;;;;;;;;;;6271340;22;20020;-85
2023/03/15 11:07:34;;;;;;;6.18;1.27;;;;;;;;;;6243204;22;20024;-85
2023/03/15 11:10:04;;;;;;;8.82;1.17;;;;;;;;;;6244449;22;20020;-85
2023/03/15 11:12:32;;;;;;;7.95;1.30;;;;;;;;;;6245597;22;20368;-84
2023/03/15 11:15:01;;;;;;;6.40;0.77;;;;;;;;;;6270699;22;20031;-84
2023/03/15 11:17:30;;;;;;;3.55;0.70;;;;;;;;;;6240582;22;20027;-85
2023/03/15 11:20:04;;;;;;;5.72;1.00;;;;;;;;;;6266140;22;21184;-85
2023/03/15 11:22:31;;;;;;;8.70;1.08;;;;;;;;;;6268291;22;20024;-85
2023/03/15 11:24:57;;;;;;;6.60;1.40;;;;;;;;;;6239854;22;20106;-85
2023/03/15 11:27:25;;;;;;;4.80;0.82;;;;;;;;;;6240148;22;20025;-86
2023/03/15 11:29:55;;;;;;;5.53;0.80;;;;;;;;;;6239750;22;20020;-84
2023/03/15 11:32:24;;;;;;;5.78;1.10;;;;;;;;;;6268739;22;20016;-85
2023/03/15 11:34:57;;;;;;;5.63;0.95;;;;;;;;;;6241228;22;20020;-85
2023/03/15 11:37:27;;;;;;;4.15;0.90;;;;;;;;;;6242077;22;20020;-85
2023/03/15 11:40:00;;;;;;;4.20;0.80;;;;;;;;;;6241987;22;20441;-87
2023/03/15 11:42:55;;;;;;;4.93;0.90;;;;;;;;;;6243277;22;20024;-85
2023/03/15 11:45:28;;;;;;;3.60;0.90;;;;;;;;;;6257999;22;20028;-85
2023/03/15 11:48:00;;;;;;;3.38;0.80;;;;;;;;;;6265290;22;20436;-85
2023/03/15 11:50:27;;;;;;;6.03;0.82;;;;;;;;;;6265903;22;20094;-85
2023/03/15 11:52:53;;;;;;;4.55;0.85;;;;;;;;;;6264202;22;20028;-85
2023/03/15 11:55:23;;;;;;;4.00;0.82;;;;;;;;;;6265655;22;20324;-85
2023/03/15 11:57:50;;;;;;;5.32;0.95;;;;;;;;;;6269091;22;20061;-85
2023/03/15 12:00:20;;;;;;;4.03;0.90;;;;;;;;;;6270721;22;20032;-86
2023/03/15 12:02:48;;;;;;;3.38;0.90;;;;;;;;;;6289851;22;20028;-86
2023/03/15 12:05:34;;;;;;;5.72;1.15;;;;;;;;;;6266635;22;20082;-85
2023/03/15 12:08:23;;;;;;;4.78;1.00;;;;;;;;;;6266868;22;20028;-84
2023/03/15 12:10:50;;;;;;;5.75;0.82;;;;;;;;;;6264023;22;20406;-86
2023/03/15 12:13:18;;;;;;;3.13;0.80;;;;;;;;;;6266217;22;20118;-86
2023/03/15 12:15:46;;;;;;;6.28;1.15;;;;;;;;;;6267361;22;20090;-86
2023/03/15 12:18:13;;;;;;;5.45;1.20;;;;;;;;;;6268206;22;20028;-87
2023/03/15 12:20:51;;;;;;;6.32;1.00;;;;;;;;;;6265688;22;20063;-86
2023/03/15 12:23:20;;;;;;;4.70;1.08;;;;;;;;;;6267550;22;20024;-85
2023/03/15 12:25:50;;;;;;;6.50;1.50;;;;;;;;;;6267051;22;20107;-86
2023/03/15 12:28:32;;;;;;;6.57;1.27;;;;;;;;;;6266806;22;20024;-86
2023/03/15 12:31:00;;;;;;;4.30;1.05;;;;;;;;;;6267363;22;20044;-85
2023/03/15 12:33:29;;;;;;;3.95;0.90;;;;;;;;;;6266575;22;20107;-86
2023/03/15 12:36:06;;;;;;;6.50;0.93;;;;;;;;;;6291368;22;20029;-85
2023/03/15 12:38:37;;;;;;;7.55;0.98;;;;;;;;;;6265220;22;20031;-85
2023/03/15 12:41:08;;;;;;;3.78;0.95;;;;;;;;;;6266586;22;20540;-85
2023/03/15 12:43:34;;;;;;;6.50;1.10;;;;;;;;;;6265335;22;20535;-86
2023/03/15 12:46:01;;;;;;;4.38;0.98;;;;;;;;;;6238989;22;20485;-85
2023/03/15 12:48:29;;;;;;;5.47;1.02;;;;;;;;;;6239684;22;20024;-85
2023/03/15 12:50:56;;;;;;;3.65;0.90;;;;;;;;;;6267099;22;20225;-84
2023/03/15 12:53:25;;;;;;;4.13;0.82;;;;;;;;;;6266834;22;20030;-86
2023/03/15 12:55:52;;;;;;;4.63;0.90;;;;;;;;;;6243062;22;20059;-85
2023/03/15 12:58:32;;;;;;;5.47;1.00;;;;;;;;;;6272741;22;20056;-86
2023/03/15 13:01:00;;;;;;;5.93;0.98;;;;;;;;;;6269518;22;20103;-85
2023/03/15 13:03:27;;;;;;;5.80;0.95;;;;;;;;;;6270320;22;20030;-85
2023/03/15 13:06:20;;;;;;;6.88;1.17;;;;;;;;;;6270529;22;20432;-85
2023/03/15 13:08:56;;;;;;;4.28;0.80;;;;;;;;;;6270350;22;21132;-85
2023/03/15 13:11:23;;;;;;;4.72;1.05;;;;;;;;;;6267507;22;20795;-84
2023/03/15 13:14:04;;;;;;;5.03;0.95;;;;;;;;;;6266462;22;20020;-85
2023/03/15 13:16:43;;;;;;;7.28;1.10;;;;;;;;;;6240117;22;20859;-85
2023/03/15 13:19:13;;;;;;;4.78;0.85;;;;;;;;;;6265627;22;20025;-85
2023/03/15 13:21:58;;;;;;;6.57;1.15;;;;;;;;;;6270252;22;20075;-85
2023/03/15 13:24:39;;;;;;;3.63;0.85;;;;;;;;;;6271102;22;20110;-85
2023/03/15 13:27:19;;;;;;;4.75;0.90;;;;;;;;;;6247723;22;20030;-85
2023/03/15 13:29:45;;;;;;;4.68;1.10;;;;;;;;;;6273112;22;20031;-84
2023/03/15 13:32:14;;;;;;;3.08;1.00;;;;;;;;;;6244280;22;20362;-85
2023/03/15 13:34:41;;;;;;;6.90;1.00;;;;;;;;;;6240928;22;20099;-85
2023/03/15 13:37:27;;;;;;;6.40;0.90;;;;;;;;;;6239523;22;20496;-84
2023/03/15 13:39:56;;;;;;;5.10;0.80;;;;;;;;;;6266586;22;20068;-85
2023/03/15 13:42:23;;;;;;;4.25;0.98;;;;;;;;;;6241831;22;20024;-86
2023/03/15 13:45:11;;;;;;;8.38;1.98;;;;;;;;;;6265338;22;20521;-85
2023/03/15 13:47:42;;;;;;;6.65;1.52;;;;;;;;;;6266749;22;20024;-85
2023/03/15 13:50:14;;;;;;;3.97;0.88;;;;;;;;;;6267521;22;20034;-85
2023/03/15 13:52:46;;;;;;;4.05;0.90;;;;;;;;;;6242759;22;20492;-84
2023/03/15 13:55:19;;;;;;;4.28;0.90;;;;;;;;;;6241571;22;20020;-85
2023/03/15 13:57:54;;;;;;;6.10;1.00;;;;;;;;;;6242220;22;20095;-86
2023/03/15 14:00:22;;;;;;;4.03;1.02;;;;;;;;;;6271643;22;20369;-85
2023/03/15 14:02:57;;;;;;;5.45;1.00;;;;;;;;;;6273257;22;20016;-85
2023/03/15 14:05:26;;;;;;;3.75;0.80;;;;;;;;;;6272094;22;20094;-84
2023/03/15 14:07:56;;;;;;;2.75;0.73;;;;;;;;;;6244185;22;20046;-85
2023/03/15 14:10:31;;;;;;;4.57;1.17;;;;;;;;;;6245534;22;20106;-84
2023/03/15 14:13:13;;;;;;;4.30;0.90;;;;;;;;;;6244852;22;20033;-83
2023/03/15 14:15:45;;;;;;;5.28;1.27;;;;;;;;;;6242393;22;20024;-85
2023/03/15 14:18:17;;;;;;;5.70;0.80;;;;;;;;;;6268163;22;20054;-85
2023/03/15 14:20:44;;;;;;;3.47;0.70;;;;;;;;;;6269437;22;20020;-85
2023/03/15 14:23:13;;;;;;;7.57;1.02;;;;;;;;;;6271926;22;20028;-85
2023/03/15 14:25:39;;;;;;;3.97;0.80;;;;;;;;;;6244790;22;20082;-86
2023/03/15 14:28:11;;;;;;;6.63;0.98;;;;;;;;;;6246865;22;20476;-85
2023/03/15 14:30:37;;;;;;;2.42;0.50;;;;;;;;;;6271797;22;20102;-82
2023/03/15 14:33:06;;;;;;;3.35;0.80;;;;;;;;;;6272311;22;20017;-86
2023/03/15 14:35:35;;;;;;;5.57;1.30;;;;;;;;;;6273025;22;20103;-83
2023/03/15 14:38:14;;;;;;;3.38;0.88;;;;;;;;;;6243800;22;20036;-84
2023/03/15 14:40:41;;;;;;;4.95;0.82;;;;;;;;;;6268435;22;20448;-84
2023/03/15 14:43:08;;;;;;;4.57;0.80;;;;;;;;;;6267790;22;20020;-85
2023/03/15 14:45:36;;;;;;;3.88;0.63;;;;;;;;;;6269572;22;20063;-85
2023/03/15 14:48:09;;;;;;;4.53;0.82;;;;;;;;;;6271095;22;20546;-84
2023/03/15 14:50:37;;;;;;;4.97;1.05;;;;;;;;;;6246088;22;20485;-84
2023/03/15 14:53:06;;;;;;;6.22;0.73;;;;;;;;;;6272032;22;20018;-85
2023/03/15 14:55:34;;;;;;;3.40;0.60;;;;;;;;;;6273337;22;20023;-83